createdAt,value
2022-09-12T00:00:03.268Z,95377.62
2022-09-12T00:01:03.289Z,95376.03
2022-09-12T00:02:03.331Z,95373.70
2022-09-12T00:03:03.261Z,95378.98
2022-09-12T00:04:03.249Z,95375.59
2022-09-12T00:05:03.244Z,95375.02
2022-09-12T00:06:03.228Z,95372.42
2022-09-12T00:07:03.223Z,95376.39
2022-09-12T00:08:03.214Z,95374.91
2022-09-12T00:09:03.204Z,95377.58
2022-09-12T00:10:03.216Z,95374.23
2022-09-12T00:11:03.178Z,95377.92
2022-09-12T00:12:03.175Z,95366.27
2022-09-12T00:13:03.161Z,95373.54
2022-09-12T00:14:03.143Z,95369.34
2022-09-12T00:15:03.157Z,95377.53
2022-09-12T00:16:03.145Z,95366.38
2022-09-12T00:17:03.136Z,95373.55
2022-09-12T00:18:03.113Z,95366.97
2022-09-12T00:19:03.346Z,95370.49
2022-09-12T00:20:03.094Z,95373.89
2022-09-12T00:21:03.099Z,95380.30
2022-09-12T00:22:03.095Z,95375.81
2022-09-12T00:23:03.065Z,95370.99
2022-09-12T00:24:03.070Z,95377.59
2022-09-12T00:25:03.047Z,95377.64
2022-09-12T00:26:03.036Z,95376.16
2022-09-12T00:27:03.045Z,95372.80
2022-09-12T00:28:03.050Z,95364.41
2022-09-12T00:29:03.034Z,95373.03
2022-09-12T00:30:03.007Z,95371.11
2022-09-12T00:31:03.013Z,95363.73
2022-09-12T00:32:02.988Z,95355.50
2022-09-12T00:33:02.980Z,95362.37
2022-09-12T00:34:03.103Z,95364.88
2022-09-12T00:35:02.973Z,95365.72
2022-09-12T00:36:02.964Z,95361.05
2022-09-12T00:37:02.962Z,95366.30
2022-09-12T00:38:02.940Z,95357.64
2022-09-12T00:39:02.945Z,95356.28
2022-09-12T00:40:02.994Z,95356.40
2022-09-12T00:41:02.932Z,95354.81
2022-09-12T00:42:02.916Z,95356.23
2022-09-12T00:43:02.914Z,95352.50
2022-09-12T00:44:02.896Z,95344.66
2022-09-12T00:45:02.885Z,95347.48
2022-09-12T00:46:02.920Z,95342.32
2022-09-12T00:47:02.878Z,95351.18
2022-09-12T00:48:02.859Z,95340.34
2022-09-12T00:49:02.859Z,95347.55
2022-09-12T00:50:02.833Z,95347.08
2022-09-12T00:51:02.825Z,95349.19
2022-09-12T00:52:02.820Z,95340.55
2022-09-12T00:53:02.819Z,95339.25
2022-09-12T00:54:02.797Z,95339.64
2022-09-12T00:55:02.788Z,95329.60
2022-09-12T00:56:02.804Z,95329.71
2022-09-12T00:57:02.776Z,95330.56
2022-09-12T00:58:02.788Z,95332.89
2022-09-12T00:59:02.762Z,95331.59
2022-09-12T01:00:02.765Z,95331.65
2022-09-12T01:01:02.818Z,95335.91
2022-09-12T01:02:03.037Z,95335.06
2022-09-12T01:03:02.718Z,95334.26
2022-09-12T01:04:02.744Z,95337.27
2022-09-12T01:05:02.700Z,95335.06
2022-09-12T01:06:02.712Z,95331.03
2022-09-12T01:07:02.680Z,95342.50
2022-09-12T01:08:02.694Z,95331.48
2022-09-12T01:09:02.675Z,95334.92
2022-09-12T01:10:02.671Z,95331.75
2022-09-12T01:11:02.655Z,95327.95
2022-09-12T01:12:02.657Z,95341.12
2022-09-12T01:13:02.631Z,95327.44
2022-09-12T01:14:02.625Z,95336.47
2022-09-12T01:15:02.624Z,95333.35
2022-09-12T01:16:02.670Z,95338.23
2022-09-12T01:17:02.594Z,95331.25
2022-09-12T01:18:02.585Z,95330.86
2022-09-12T01:19:02.574Z,95330.17
2022-09-12T01:20:02.574Z,95329.89
2022-09-12T01:21:02.563Z,95324.03
2022-09-12T01:22:02.580Z,95327.61
2022-09-12T01:23:02.536Z,95332.66
2022-09-12T01:24:02.550Z,95330.06
2022-09-12T01:25:02.537Z,95329.77
2022-09-12T01:26:02.517Z,95335.04
2022-09-12T01:27:02.520Z,95337.88
2022-09-12T01:28:02.522Z,95335.50
2022-09-12T01:29:02.527Z,95330.95
2022-09-12T01:30:02.485Z,95329.08
2022-09-12T01:31:02.482Z,95337.05
2022-09-12T01:32:02.512Z,95329.78
2022-09-12T01:33:02.463Z,95329.61
2022-09-12T01:34:02.484Z,95329.10
2022-09-12T01:35:02.430Z,95327.11
2022-09-12T01:36:02.444Z,95329.72
2022-09-12T01:37:02.425Z,95326.19
2022-09-12T01:38:02.412Z,95324.42
2022-09-12T01:39:02.402Z,95329.25
2022-09-12T01:40:02.477Z,95324.38
2022-09-12T01:41:02.382Z,95325.01
2022-09-12T01:42:02.394Z,95326.88
2022-09-12T01:43:02.365Z,95327.09
2022-09-12T01:44:02.376Z,95324.09
2022-09-12T01:45:02.357Z,95321.38
2022-09-12T01:46:02.430Z,95322.56
2022-09-12T01:47:02.339Z,95317.12
2022-09-12T01:48:02.338Z,95317.69
2022-09-12T01:49:02.329Z,95314.66
2022-09-12T01:50:02.319Z,95313.80
2022-09-12T01:51:02.309Z,95312.68
2022-09-12T01:52:02.321Z,95309.56
2022-09-12T01:53:02.290Z,95307.79
2022-09-12T01:54:02.287Z,95311.33
2022-09-12T01:55:05.390Z,95310.08
2022-09-12T01:56:02.271Z,95311.02
2022-09-12T01:57:02.245Z,95310.41
2022-09-12T01:58:02.271Z,95309.33
2022-09-12T01:59:02.234Z,95312.00
2022-09-12T02:00:02.233Z,95304.96
2022-09-12T02:01:02.228Z,95305.76
2022-09-12T02:02:02.275Z,95306.73
2022-09-12T02:03:02.193Z,95307.16
2022-09-12T02:04:02.303Z,95310.01
2022-09-12T02:05:02.183Z,95312.11
2022-09-12T02:06:02.184Z,95308.25
2022-09-12T02:07:02.165Z,95311.08
2022-09-12T02:08:02.166Z,95304.77
2022-09-12T02:09:02.151Z,95308.02
2022-09-12T02:10:02.246Z,95307.80
2022-09-12T02:11:02.122Z,95308.94
2022-09-12T02:12:02.125Z,95301.98
2022-09-12T02:13:02.120Z,95298.92
2022-09-12T02:14:02.114Z,95299.90
2022-09-12T02:15:02.084Z,95298.94
2022-09-12T02:16:02.119Z,95299.03
2022-09-12T02:17:02.078Z,95296.05
2022-09-12T02:18:02.064Z,95295.80
2022-09-12T02:19:02.068Z,95295.87
2022-09-12T02:20:02.046Z,95295.93
2022-09-12T02:21:02.051Z,95289.35
2022-09-12T02:22:02.056Z,95290.66
2022-09-12T02:23:02.016Z,95294.23
2022-09-12T02:24:02.017Z,95286.85
2022-09-12T02:25:02.013Z,95290.48
2022-09-12T02:26:02.011Z,95295.42
2022-09-12T02:27:01.991Z,95297.12
2022-09-12T02:28:01.998Z,95295.64
2022-09-12T02:29:01.969Z,95291.84
2022-09-12T02:30:01.967Z,95291.49
2022-09-12T02:31:02.007Z,95290.98
2022-09-12T02:32:01.949Z,95288.89
2022-09-12T02:33:01.944Z,95287.64
2022-09-12T02:34:01.967Z,95291.50
2022-09-12T02:35:01.910Z,95288.08
2022-09-12T02:36:01.910Z,95293.24
2022-09-12T02:37:01.901Z,95289.78
2022-09-12T02:38:01.916Z,95289.73
2022-09-12T02:39:01.884Z,95290.02
2022-09-12T02:40:01.953Z,95290.76
2022-09-12T02:41:01.876Z,95283.67
2022-09-12T02:42:01.862Z,95291.97
2022-09-12T02:43:01.864Z,95290.20
2022-09-12T02:44:01.856Z,95287.41
2022-09-12T02:45:01.831Z,95284.34
2022-09-12T02:46:01.946Z,95282.25
2022-09-12T02:47:01.813Z,95287.87
2022-09-12T02:48:01.818Z,95289.52
2022-09-12T02:49:01.808Z,95286.69
2022-09-12T02:50:01.798Z,95283.77
2022-09-12T02:51:01.789Z,95282.80
2022-09-12T02:52:01.796Z,95282.07
2022-09-12T02:53:01.769Z,95282.86
2022-09-12T02:54:01.756Z,95279.98
2022-09-12T02:55:01.748Z,95279.12
2022-09-12T02:56:01.750Z,95278.50
2022-09-12T02:57:01.731Z,95273.00
2022-09-12T02:58:01.761Z,95276.52
2022-09-12T02:59:01.722Z,95277.77
2022-09-12T03:00:01.707Z,95272.49
2022-09-12T03:01:01.721Z,95270.23
2022-09-12T03:02:01.698Z,95273.97
2022-09-12T03:03:01.680Z,95273.12
2022-09-12T03:04:01.704Z,95271.25
2022-09-12T03:05:01.659Z,95268.22
2022-09-12T03:06:01.650Z,95270.34
2022-09-12T03:07:01.654Z,95269.24
2022-09-12T03:08:01.655Z,95267.62
2022-09-12T03:09:01.635Z,95268.62
2022-09-12T03:10:01.655Z,95273.83
2022-09-12T03:11:01.615Z,95273.21
2022-09-12T03:12:01.601Z,95271.40
2022-09-12T03:13:01.596Z,95272.31
2022-09-12T03:14:01.596Z,95271.02
2022-09-12T03:15:01.669Z,95267.88
2022-09-12T03:16:01.574Z,95270.42
2022-09-12T03:17:01.554Z,95273.48
2022-09-12T03:18:01.555Z,95270.94
2022-09-12T03:19:01.548Z,95269.00
2022-09-12T03:20:01.541Z,95265.85
2022-09-12T03:21:01.515Z,95267.36
2022-09-12T03:22:01.539Z,95271.22
2022-09-12T03:23:01.496Z,95270.20
2022-09-12T03:24:01.513Z,95278.59
2022-09-12T03:25:01.488Z,95271.50
2022-09-12T03:26:01.492Z,95271.44
2022-09-12T03:27:01.480Z,95271.16
2022-09-12T03:28:01.481Z,95267.45
2022-09-12T03:29:01.447Z,95270.62
2022-09-12T03:30:01.448Z,95268.53
2022-09-12T03:31:01.467Z,95275.34
2022-09-12T03:32:01.429Z,95271.83
2022-09-12T03:33:01.410Z,95267.34
2022-09-12T03:34:01.442Z,95267.86
2022-09-12T03:35:01.406Z,95267.01
2022-09-12T03:36:01.404Z,95269.45
2022-09-12T03:37:01.370Z,95267.62
2022-09-12T03:38:01.370Z,95271.88
2022-09-12T03:39:01.372Z,95269.43
2022-09-12T03:40:01.386Z,95267.45
2022-09-12T03:41:01.341Z,95268.23
2022-09-12T03:42:01.333Z,95268.23
2022-09-12T03:43:01.322Z,95272.42
2022-09-12T03:44:01.335Z,95276.45
2022-09-12T03:45:01.320Z,95275.27
2022-09-12T03:46:01.363Z,95278.20
2022-09-12T03:47:01.284Z,95280.19
2022-09-12T03:48:01.297Z,95281.05
2022-09-12T03:49:01.285Z,95281.77
2022-09-12T03:50:01.264Z,95280.14
2022-09-12T03:51:01.269Z,95286.09
2022-09-12T03:52:01.265Z,95279.97
2022-09-12T03:53:01.235Z,95276.09
2022-09-12T03:54:01.240Z,95278.98
2022-09-12T03:55:01.231Z,95279.78
2022-09-12T03:56:01.230Z,95280.62
2022-09-12T03:57:01.210Z,95283.30
2022-09-12T03:58:01.225Z,95278.65
2022-09-12T03:59:01.192Z,95273.03
2022-09-12T04:00:01.191Z,95278.14
2022-09-12T04:01:01.200Z,95277.45
2022-09-12T04:02:01.213Z,95279.53
2022-09-12T04:03:01.147Z,95281.62
2022-09-12T04:04:01.161Z,95277.04
2022-09-12T04:05:01.143Z,95279.76
2022-09-12T04:06:01.120Z,95278.97
2022-09-12T04:07:01.112Z,95282.77
2022-09-12T04:08:01.125Z,95276.16
2022-09-12T04:09:01.105Z,95277.41
2022-09-12T04:10:01.100Z,95279.73
2022-09-12T04:11:01.092Z,95281.06
2022-09-12T04:12:01.087Z,95281.94
2022-09-12T04:13:01.075Z,95279.25
2022-09-12T04:14:01.062Z,95281.63
2022-09-12T04:15:01.057Z,95283.22
2022-09-12T04:16:01.061Z,95274.02
2022-09-12T04:17:01.033Z,95271.19
2022-09-12T04:18:05.593Z,95273.96
2022-09-12T04:19:01.037Z,95280.48
2022-09-12T04:20:01.006Z,95276.52
2022-09-12T04:21:01.008Z,95281.22
2022-09-12T04:22:01.018Z,95280.75
2022-09-12T04:23:00.993Z,95279.16
2022-09-12T04:24:00.976Z,95284.55
2022-09-12T04:25:00.967Z,95281.60
2022-09-12T04:26:00.969Z,95284.08
2022-09-12T04:27:04.799Z,95281.69
2022-09-12T04:28:00.966Z,95285.32
2022-09-12T04:29:00.927Z,95287.02
2022-09-12T04:30:00.942Z,95284.02
2022-09-12T04:31:00.939Z,95288.16
2022-09-12T04:32:00.921Z,95289.06
2022-09-12T04:33:03.006Z,95290.64
2022-09-12T04:34:00.912Z,95289.97
2022-09-12T04:35:00.893Z,95288.52
2022-09-12T04:36:00.880Z,95286.45
2022-09-12T04:37:00.871Z,95290.53
2022-09-12T04:38:00.874Z,95286.64
2022-09-12T04:39:00.862Z,95290.67
2022-09-12T04:40:00.898Z,95289.59
2022-09-12T04:41:00.844Z,95287.84
2022-09-12T04:42:00.844Z,95293.50
2022-09-12T04:43:00.812Z,95293.90
2022-09-12T04:44:00.825Z,95290.61
2022-09-12T04:45:00.800Z,95294.41
2022-09-12T04:46:00.848Z,95291.70
2022-09-12T04:47:00.783Z,95297.09
2022-09-12T04:48:00.784Z,95302.19
2022-09-12T04:49:00.783Z,95302.19
2022-09-12T04:50:00.777Z,95297.09
2022-09-12T04:51:00.745Z,95294.94
2022-09-12T04:52:00.768Z,95297.00
2022-09-12T04:53:00.734Z,95297.33
2022-09-12T04:54:00.728Z,95299.31
2022-09-12T04:55:00.716Z,95298.47
2022-09-12T04:56:00.716Z,95296.99
2022-09-12T04:57:00.711Z,95296.31
2022-09-12T04:58:00.710Z,95299.48
2022-09-12T04:59:00.691Z,95298.66
2022-09-12T05:00:05.168Z,95297.81
2022-09-12T05:01:00.720Z,95298.48
2022-09-12T05:02:00.673Z,95296.05
2022-09-12T05:03:00.662Z,95301.98
2022-09-12T05:04:00.657Z,95296.08
2022-09-12T05:05:00.642Z,95295.01
2022-09-12T05:06:00.626Z,95303.34
2022-09-12T05:07:00.622Z,95297.73
2022-09-12T05:08:00.611Z,95300.98
2022-09-12T05:09:00.610Z,95296.45
2022-09-12T05:10:00.600Z,95298.03
2022-09-12T05:11:00.581Z,95302.45
2022-09-12T05:12:04.935Z,95305.73
2022-09-12T05:13:00.571Z,95307.05
2022-09-12T05:14:00.553Z,95300.81
2022-09-12T05:15:00.551Z,95305.97
2022-09-12T05:16:00.565Z,95306.84
2022-09-12T05:17:00.580Z,95309.22
2022-09-12T05:18:00.524Z,95307.11
2022-09-12T05:19:00.513Z,95308.93
2022-09-12T05:20:00.517Z,95310.37
2022-09-12T05:21:00.517Z,95312.17
2022-09-12T05:22:00.594Z,95311.73
2022-09-12T05:23:00.498Z,95310.02
2022-09-12T05:24:00.488Z,95307.72
2022-09-12T05:25:00.482Z,95313.22
2022-09-12T05:26:00.457Z,95310.89
2022-09-12T05:27:00.455Z,95309.08
2022-09-12T05:28:00.455Z,95309.77
2022-09-12T05:29:00.437Z,95309.66
2022-09-12T05:30:00.416Z,95314.02
2022-09-12T05:31:00.451Z,95311.41
2022-09-12T05:32:00.420Z,95313.47
2022-09-12T05:33:00.417Z,95307.74
2022-09-12T05:34:00.399Z,95313.64
2022-09-12T05:35:00.424Z,95310.06
2022-09-12T05:36:00.388Z,95310.00
2022-09-12T05:37:00.486Z,95313.20
2022-09-12T05:38:00.375Z,95308.95
2022-09-12T05:39:00.366Z,95303.89
2022-09-12T05:40:00.409Z,95308.14
2022-09-12T05:41:00.339Z,95309.05
2022-09-12T05:42:00.336Z,95306.12
2022-09-12T05:43:00.321Z,95306.01
2022-09-12T05:44:00.308Z,95310.91
2022-09-12T05:45:00.302Z,95311.97
2022-09-12T05:46:00.316Z,95312.59
2022-09-12T05:47:00.302Z,95308.25
2022-09-12T05:48:00.285Z,95318.79
2022-09-12T05:49:00.286Z,95314.12
2022-09-12T05:50:00.266Z,95314.36
2022-09-12T05:51:00.267Z,95312.53
2022-09-12T05:52:00.357Z,95313.05
2022-09-12T05:53:00.233Z,95315.89
2022-09-12T05:54:00.234Z,95315.00
2022-09-12T05:55:00.235Z,95311.98
2022-09-12T05:56:00.218Z,95312.94
2022-09-12T05:57:00.205Z,95313.24
2022-09-12T05:58:00.218Z,95312.78
2022-09-12T05:59:00.187Z,95313.05
2022-09-12T06:00:00.190Z,95314.27
2022-09-12T06:01:00.244Z,95314.09
2022-09-12T06:02:00.219Z,95315.91
2022-09-12T06:03:00.148Z,95315.84
2022-09-12T06:04:00.161Z,95318.59
2022-09-12T06:05:00.141Z,95317.90
2022-09-12T06:06:00.119Z,95316.75
2022-09-12T06:07:00.120Z,95321.20
2022-09-12T06:08:00.112Z,95315.29
2022-09-12T06:09:00.098Z,95315.28
2022-09-12T06:10:00.104Z,95319.56
2022-09-12T06:11:02.295Z,95311.94
2022-09-12T06:12:00.090Z,95312.52
2022-09-12T06:13:00.074Z,95316.72
2022-09-12T06:14:00.054Z,95313.48
2022-09-12T06:15:00.044Z,95321.48
2022-09-12T06:16:00.055Z,95323.81
2022-09-12T06:17:00.066Z,95329.38
2022-09-12T06:18:00.013Z,95324.94
2022-09-12T06:19:00.014Z,95324.77
2022-09-12T06:20:00.015Z,95333.75
2022-09-12T06:21:00.012Z,95323.01
2022-09-12T06:22:00.005Z,95320.86
2022-09-12T06:22:59.974Z,95318.25
2022-09-12T06:23:59.978Z,95321.42
2022-09-12T06:24:59.954Z,95319.78
2022-09-12T06:25:59.958Z,95315.62
2022-09-12T06:26:59.956Z,95320.12
2022-09-12T06:27:59.956Z,95321.14
2022-09-12T06:28:59.939Z,95318.92
2022-09-12T06:29:59.920Z,95326.24
2022-09-12T06:30:59.942Z,95319.20
2022-09-12T06:31:59.897Z,95319.48
2022-09-12T06:32:59.888Z,95320.80
2022-09-12T06:33:59.885Z,95322.09
2022-09-12T06:34:59.867Z,95323.70
2022-09-12T06:35:59.859Z,95323.45
2022-09-12T06:36:59.871Z,95321.30
2022-09-12T06:37:59.852Z,95323.58
2022-09-12T06:38:59.839Z,95321.86
2022-09-12T06:39:59.877Z,95324.19
2022-09-12T06:40:59.820Z,95326.30
2022-09-12T06:41:59.823Z,95326.69
2022-09-12T06:42:59.809Z,95319.41
2022-09-12T06:43:59.790Z,95320.66
2022-09-12T06:44:59.805Z,95321.40
2022-09-12T06:45:59.814Z,95320.14
2022-09-12T06:46:59.775Z,95318.83
2022-09-12T06:47:59.761Z,95316.00
2022-09-12T06:48:59.760Z,95321.49
2022-09-12T06:49:59.743Z,95316.23
2022-09-12T06:50:59.742Z,95322.30
2022-09-12T06:51:59.745Z,95320.48
2022-09-12T06:52:59.724Z,95322.19
2022-09-12T06:53:59.724Z,95323.81
2022-09-12T06:54:59.718Z,95328.25
2022-09-12T06:55:59.694Z,95323.30
2022-09-12T06:56:59.685Z,95325.50
2022-09-12T06:57:59.699Z,95322.68
2022-09-12T06:58:59.689Z,95322.45
2022-09-12T06:59:59.664Z,95318.19
2022-09-12T07:00:59.774Z,95319.05
2022-09-12T07:01:59.703Z,95316.54
2022-09-12T07:02:59.636Z,95324.33
2022-09-12T07:03:59.640Z,95323.02
2022-09-12T07:04:59.618Z,95323.53
2022-09-12T07:05:59.607Z,95324.84
2022-09-12T07:06:59.598Z,95328.36
2022-09-12T07:07:59.589Z,95328.69
2022-09-12T07:08:59.587Z,95324.11
2022-09-12T07:09:59.602Z,95324.38
2022-09-12T07:10:59.568Z,95323.98
2022-09-12T07:11:59.549Z,95323.18
2022-09-12T07:12:59.564Z,95320.55
2022-09-12T07:13:59.539Z,95322.54
2022-09-12T07:14:59.555Z,95322.66
2022-09-12T07:15:59.529Z,95324.98
2022-09-12T07:16:59.547Z,95325.20
2022-09-12T07:17:59.515Z,95323.00
2022-09-12T07:18:59.491Z,95322.46
2022-09-12T07:19:59.526Z,95321.55
2022-09-12T07:20:59.496Z,95325.48
2022-09-12T07:21:59.489Z,95328.20
2022-09-12T07:22:59.465Z,95327.91
2022-09-12T07:23:59.443Z,95327.91
2022-09-12T07:24:59.457Z,95325.45
2022-09-12T07:25:59.439Z,95324.49
2022-09-12T07:26:59.439Z,95326.00
2022-09-12T07:27:59.425Z,95325.17
2022-09-12T07:29:13.196Z,95322.09
2022-09-12T07:29:59.439Z,95324.92
2022-09-12T07:30:59.426Z,95323.69
2022-09-12T07:31:59.376Z,95324.62
2022-09-12T07:32:59.377Z,95321.97
2022-09-12T07:33:59.391Z,95320.59
2022-09-12T07:34:59.357Z,95320.47
2022-09-12T07:35:59.360Z,95316.53
2022-09-12T07:36:59.353Z,95314.31
2022-09-12T07:37:59.328Z,95319.31
2022-09-12T07:38:59.327Z,95315.95
2022-09-12T07:39:59.414Z,95317.81
2022-09-12T07:40:59.325Z,95319.02
2022-09-12T07:41:59.304Z,95323.59
2022-09-12T07:42:59.303Z,95326.27
2022-09-12T07:43:59.278Z,95325.12
2022-09-12T07:44:59.279Z,95321.93
2022-09-12T07:45:59.311Z,95324.46
2022-09-12T07:46:59.265Z,95325.89
2022-09-12T07:47:59.255Z,95326.28
2022-09-12T07:48:59.245Z,95331.34
2022-09-12T07:49:59.222Z,95330.23
2022-09-12T07:50:59.235Z,95328.58
2022-09-12T07:51:59.226Z,95327.60
2022-09-12T07:52:59.213Z,95322.74
2022-09-12T07:53:59.193Z,95326.89
2022-09-12T07:54:59.183Z,95322.11
2022-09-12T07:55:59.187Z,95325.68
2022-09-12T07:56:59.188Z,95327.73
2022-09-12T07:57:59.174Z,95328.50
2022-09-12T07:58:59.160Z,95325.94
2022-09-12T07:59:59.135Z,95327.22
2022-09-12T08:00:59.240Z,95316.67
2022-09-12T08:01:59.130Z,95319.12
2022-09-12T08:02:59.131Z,95315.56
2022-09-12T08:03:59.218Z,95320.05
2022-09-12T08:04:59.121Z,95318.00
2022-09-12T08:05:59.088Z,95314.71
2022-09-12T08:06:59.080Z,95315.20
2022-09-12T08:07:59.068Z,95315.62
2022-09-12T08:08:59.073Z,95311.62
2022-09-12T08:09:59.059Z,95316.75
2022-09-12T08:10:59.061Z,95313.31
2022-09-12T08:11:59.029Z,95312.30
2022-09-12T08:12:59.043Z,95309.06
2022-09-12T08:13:59.025Z,95311.34
2022-09-12T08:14:59.011Z,95309.52
2022-09-12T08:15:59.086Z,95307.89
2022-09-12T08:16:59.004Z,95307.58
2022-09-12T08:17:58.992Z,95307.87
2022-09-12T08:18:58.985Z,95310.52
2022-09-12T08:19:58.984Z,95311.48
2022-09-12T08:20:58.966Z,95310.38
2022-09-12T08:21:58.962Z,95308.23
2022-09-12T08:22:58.947Z,95310.86
2022-09-12T08:23:58.925Z,95309.74
2022-09-12T08:24:58.927Z,95311.46
2022-09-12T08:25:59.045Z,95313.73
2022-09-12T08:26:58.915Z,95308.53
2022-09-12T08:27:58.905Z,95310.94
2022-09-12T08:28:58.898Z,95313.44
2022-09-12T08:29:58.866Z,95309.75
2022-09-12T08:30:58.986Z,95311.67
2022-09-12T08:31:58.855Z,95315.56
2022-09-12T08:32:58.847Z,95313.19
2022-09-12T08:33:58.858Z,95317.14
2022-09-12T08:34:58.828Z,95316.55
2022-09-12T08:35:58.808Z,95317.30
2022-09-12T08:36:58.822Z,95310.86
2022-09-12T08:37:58.799Z,95309.31
2022-09-12T08:39:00.277Z,95307.95
2022-09-12T08:39:58.827Z,95314.42
2022-09-12T08:40:58.785Z,95311.34
2022-09-12T08:41:58.817Z,95305.11
2022-09-12T08:42:58.760Z,95308.24
2022-09-12T08:43:58.755Z,95310.89
2022-09-12T08:44:58.741Z,95307.72
2022-09-12T08:45:58.805Z,95315.85
2022-09-12T08:46:58.736Z,95311.95
2022-09-12T08:47:58.703Z,95313.02
2022-09-12T08:48:58.705Z,95307.48
2022-09-12T08:49:58.693Z,95308.99
2022-09-12T08:50:58.686Z,95309.86
2022-09-12T08:51:58.673Z,95304.83
2022-09-12T08:52:58.849Z,95312.68
2022-09-12T08:53:58.666Z,95307.61
2022-09-12T08:54:58.659Z,95312.86
2022-09-12T08:55:58.635Z,95314.74
2022-09-12T08:56:58.642Z,95312.23
2022-09-12T08:57:58.650Z,95311.36
2022-09-12T08:58:58.615Z,95305.17
2022-09-12T08:59:58.610Z,95308.61
2022-09-12T09:00:58.597Z,95307.24
2022-09-12T09:01:58.695Z,95312.16
2022-09-12T09:04:09.831Z,95310.05
2022-09-12T09:05:09.811Z,95306.77
2022-09-12T09:06:09.803Z,95309.77
2022-09-12T09:07:09.806Z,95307.48
2022-09-12T09:08:09.796Z,95299.49
2022-09-12T09:09:09.783Z,95300.23
2022-09-12T09:10:09.796Z,95301.03
2022-09-12T09:11:09.777Z,95299.28
2022-09-12T09:12:09.753Z,95303.64
2022-09-12T09:13:09.746Z,95300.18
2022-09-12T09:14:09.741Z,95301.72
2022-09-12T09:15:09.740Z,95296.99
2022-09-12T09:16:09.769Z,95296.55
2022-09-12T09:17:09.729Z,95303.20
2022-09-12T09:18:09.713Z,95294.56
2022-09-12T09:19:09.710Z,95295.62
2022-09-12T09:20:09.698Z,95297.52
2022-09-12T09:21:09.678Z,95297.62
2022-09-12T09:22:09.692Z,95296.87
2022-09-12T09:23:09.680Z,95300.16
2022-09-12T09:24:09.672Z,95298.72
2022-09-12T09:25:09.640Z,95293.84
2022-09-12T09:26:09.630Z,95299.16
2022-09-12T09:27:29.809Z,95298.78
2022-09-12T09:28:09.654Z,95297.06
2022-09-12T09:29:09.625Z,95299.08
2022-09-12T09:30:09.692Z,95298.97
2022-09-12T09:31:09.649Z,95299.10
2022-09-12T09:32:09.594Z,95298.44
2022-09-12T09:33:09.586Z,95297.16
2022-09-12T09:34:09.573Z,95297.39
2022-09-12T09:35:09.555Z,95294.74
2022-09-12T09:36:09.557Z,95290.00
2022-09-12T09:37:09.546Z,95292.80
2022-09-12T09:38:09.525Z,95292.25
2022-09-12T09:39:09.538Z,95290.98
2022-09-12T09:40:09.597Z,95289.47
2022-09-12T09:41:09.521Z,95288.98
2022-09-12T09:42:09.496Z,95287.12
2022-09-12T09:43:09.520Z,95289.66
2022-09-12T09:44:09.479Z,95284.66
2022-09-12T09:45:09.488Z,95291.77
2022-09-12T09:46:09.511Z,95289.91
2022-09-12T09:47:09.459Z,95288.16
2022-09-12T09:48:09.452Z,95286.16
2022-09-12T09:49:09.438Z,95282.27
2022-09-12T09:50:09.440Z,95279.23
2022-09-12T09:51:09.419Z,95281.73
2022-09-12T09:52:09.443Z,95279.94
2022-09-12T09:53:09.414Z,95280.71
2022-09-12T09:54:09.404Z,95279.54
2022-09-12T09:55:09.402Z,95274.34
2022-09-12T09:56:09.385Z,95280.20
2022-09-12T09:57:09.386Z,95280.03
2022-09-12T09:58:09.386Z,95279.95
2022-09-12T09:59:09.367Z,95276.64
2022-09-12T10:00:09.343Z,95277.52
2022-09-12T10:01:09.343Z,95275.19
2022-09-12T10:02:09.367Z,95277.62
2022-09-12T10:03:13.474Z,95274.41
2022-09-12T10:04:09.325Z,95278.08
2022-09-12T10:05:09.317Z,95279.69
2022-09-12T10:06:09.310Z,95278.57
2022-09-12T10:07:09.299Z,95272.19
2022-09-12T10:08:09.267Z,95270.45
2022-09-12T10:09:09.282Z,95275.40
2022-09-12T10:10:09.280Z,95268.81
2022-09-12T10:11:09.259Z,95273.39
2022-09-12T10:12:09.272Z,95268.41
2022-09-12T10:13:09.292Z,95266.29
2022-09-12T10:14:09.232Z,95267.75
2022-09-12T10:15:09.229Z,95274.41
2022-09-12T10:16:09.244Z,95273.23
2022-09-12T10:17:09.213Z,95276.03
2022-09-12T10:18:09.203Z,95267.92
2022-09-12T10:19:09.195Z,95269.94
2022-09-12T10:20:20.880Z,95268.37
2022-09-12T10:21:09.189Z,95267.99
2022-09-12T10:22:09.184Z,95261.04
2022-09-12T10:23:09.153Z,95268.47
2022-09-12T10:24:09.133Z,95264.15
2022-09-12T10:25:09.133Z,95257.73
2022-09-12T10:26:09.126Z,95256.19
2022-09-12T10:27:09.126Z,95255.28
2022-09-12T10:28:09.104Z,95257.03
2022-09-12T10:29:09.115Z,95254.70
2022-09-12T10:30:09.126Z,95260.64
2022-09-12T10:31:09.139Z,95252.77
2022-09-12T10:32:09.079Z,95263.61
2022-09-12T10:33:09.066Z,95261.84
2022-09-12T10:34:09.065Z,95264.52
2022-09-12T10:35:09.100Z,95266.34
2022-09-12T10:36:09.038Z,95265.90
2022-09-12T10:37:09.041Z,95264.87
2022-09-12T10:38:09.032Z,95263.91
2022-09-12T10:39:09.059Z,95262.81
2022-09-12T10:40:09.054Z,95267.43
2022-09-12T10:41:09.000Z,95263.26
2022-09-12T10:42:08.980Z,95268.55
2022-09-12T10:43:08.981Z,95263.36
2022-09-12T10:44:08.971Z,95265.25
2022-09-12T10:45:08.975Z,95263.22
2022-09-12T10:46:08.997Z,95262.34
2022-09-12T10:47:08.952Z,95265.19
2022-09-12T10:48:08.932Z,95263.86
2022-09-12T10:49:08.933Z,95265.21
2022-09-12T10:50:08.927Z,95256.78
2022-09-12T10:51:08.915Z,95257.56
2022-09-12T10:52:08.915Z,95260.47
2022-09-12T10:53:08.909Z,95257.72
2022-09-12T10:54:08.885Z,95261.41
2022-09-12T10:55:08.889Z,95258.31
2022-09-12T10:56:08.866Z,95258.41
2022-09-12T10:57:08.870Z,95262.00
2022-09-12T10:58:08.962Z,95262.96
2022-09-12T10:59:08.848Z,95264.88
2022-09-12T11:00:08.828Z,95256.54
2022-09-12T11:01:08.875Z,95258.07
2022-09-12T11:02:08.856Z,95258.41
2022-09-12T11:03:08.811Z,95257.95
2022-09-12T11:04:08.823Z,95258.88
2022-09-12T11:05:08.791Z,95254.92
2022-09-12T11:06:08.781Z,95253.94
2022-09-12T11:07:08.780Z,95253.33
2022-09-12T11:08:08.760Z,95258.00
2022-09-12T11:09:08.762Z,95250.09
2022-09-12T11:10:08.752Z,95254.97
2022-09-12T11:11:08.743Z,95253.80
2022-09-12T11:12:08.743Z,95251.36
2022-09-12T11:13:08.723Z,95253.74
2022-09-12T11:14:08.713Z,95252.20
2022-09-12T11:15:08.727Z,95253.59
2022-09-12T11:16:08.746Z,95253.62
2022-09-12T11:17:12.796Z,95253.64
2022-09-12T11:18:08.688Z,95252.48
2022-09-12T11:19:08.675Z,95255.69
2022-09-12T11:20:08.659Z,95253.56
2022-09-12T11:21:08.657Z,95254.92
2022-09-12T11:22:08.670Z,95250.75
2022-09-12T11:23:08.639Z,95250.97
2022-09-12T11:24:08.628Z,95250.47
2022-09-12T11:25:08.619Z,95249.97
2022-09-12T11:26:08.608Z,95252.93
2022-09-12T11:27:08.608Z,95249.52
2022-09-12T11:28:08.602Z,95244.49
2022-09-12T11:29:08.590Z,95238.44
2022-09-12T11:30:08.577Z,95249.24
2022-09-12T11:31:08.624Z,95249.16
2022-09-12T11:32:08.574Z,95250.30
2022-09-12T11:33:08.552Z,95240.70
2022-09-12T11:34:08.564Z,95241.71
2022-09-12T11:35:08.544Z,95238.78
2022-09-12T11:36:08.536Z,95243.55
2022-09-12T11:37:10.926Z,95242.25
2022-09-12T11:38:08.503Z,95235.36
2022-09-12T11:39:08.509Z,95235.56
2022-09-12T11:40:08.574Z,95240.38
2022-09-12T11:41:08.484Z,95237.73
2022-09-12T11:42:08.475Z,95238.66
2022-09-12T11:43:08.479Z,95236.84
2022-09-12T11:44:08.469Z,95241.76
2022-09-12T11:45:08.459Z,95237.12